Latest Coastal Weather Observations for Gabo Island

IDV60701

Issued at 12:25 pm EDT Monday 24 November 2014 (issued every 10 minutes, with the page automatically refreshed every 10 minutes)

About coastal observations | Map of coastal stations | Coastal observations for VIC | Marine services | Other Formats
Station Details ID: 084016 Name: GABO ISLAND LIGHTHOUSE Lat: -37.57 Lon: 149.92 Height: 15.2 m
Data from the previous 72 hours. | See also: Recent months at Gabo Island
Date/Time
EDT
Temp

°C
Wind Pressure Rain
since 9am
mm
Weather Cloud Vis
km
Sea
Height
m
Swell
Dir
 
Speed
knots
Gust
knots
hPa Trend Height
m
Period
s
Dir
24/12:00pm 20.1 NNE 21 25 1008.8 - 0.0 - - - - - - -
24/11:30am 20.3 NNE 20 25 1009.4 - 0.0 - - - - - - -
24/11:00am 19.9 NE 18 21 1009.4 - 0.0 - - - - - - -
24/10:30am 19.6 NE 14 17 1009.1 - 0.0 - - - - - - -
24/10:00am 19.4 ENE 12 15 1009.0 - 0.0 - - - - - - -
24/09:30am 19.3 E 5 6 1009.2 - 0.0 - - - - - - -
24/09:00am 19.5 ESE 6 11 1009.8 - 0.0 Fine Mostly cloudy 25 <0.5 0.5 8 SE
24/08:30am 19.4 SW 6 8 1010.1 - 0.0 - - - - - - -
24/08:00am 20.3 NNE 7 9 1010.2 - 0.0 - - - - - - -
24/07:30am 19.4 NNE 11 13 1010.3 - 0.0 - - - - - - -
24/07:00am 19.2 N 12 19 1010.9 - 0.0 - - - - - - -
24/06:30am 18.2 NNE 17 22 1010.9 - 0.0 - - - - - - -
24/06:00am 18.0 NNE 20 23 1011.1 - 0.0 - - - - - - -
24/05:30am 18.0 NE 20 23 1011.5 - 0.0 - - - - - - -
24/05:00am 17.3 NNE 13 15 1011.7 - 0.0 - - - - - - -
24/04:30am 17.0 NE 18 21 1012.0 - 0.0 - - - - - - -
24/04:18am 16.9 NE 15 19 1011.4 - 0.0 - - - - - - -
24/04:00am 16.5 N 6 8 1012.4 - 0.0 - - - - - - -
24/03:30am 16.7 N 7 9 1012.6 - 0.0 - - - - - - -
24/03:00am 16.4 NE 5 10 1012.9 - 0.0 Fine Cloudy 10 <0.5 0.5 9 NE
24/02:30am 16.1 WSW 4 5 1013.9 - 0.0 - - - - - - -
24/02:00am 16.1 NW 4 4 1013.5 - 0.0 - - - - - - -
24/01:30am 16.1 WNW 6 8 1014.7 - 0.0 - - - - - - -
24/01:00am 15.7 N 6 7 1014.0 - 0.0 - - - - - - -
24/12:30am 15.9 WNW 6 7 1014.9 - 0.0 - - - - - - -
24/12:00am 16.0 W 7 8 1015.3 - 0.0 - - - - - - -
 
Date/Time
EDT
Temp

°C
Wind Pressure Rain
since 9am
mm
Weather Cloud Vis
km
Sea
Height
m
Swell
Dir
 
Speed
knots
Gust
knots
hPa Trend Height
m
Period
s
Dir
23/11:30pm 16.6 W 7 8 1015.3 - 0.0 - - - - - - -
23/11:00pm 17.3 WSW 7 8 1015.4 - 0.0 - - - - - - -
23/10:30pm 17.4 SW 6 8 1015.8 - 0.0 - - - - - - -
23/10:00pm 17.8 SW 8 9 1015.5 - 0.0 - - - - - - -
23/09:30pm 17.7 SSW 9 10 1015.1 - 0.0 - - - - - - -
23/09:00pm 17.7 SSW 9 10 1014.8 - 0.0 Fine Partly cloudy 30 <0.5 0.5 9 NE
23/08:30pm 17.7 SSW 8 9 1014.7 - 0.0 - - - - - - -
23/08:00pm 17.6 SSW 5 6 1014.2 - 0.0 - - - - - - -
23/07:30pm 17.8 SSW 4 4 1014.0 - 0.0 - - - - - - -
23/07:00pm 18.0 SSW 3 4 1013.4 - 0.0 - - - - - - -
23/06:30pm 18.2 S 4 6 1013.0 - 0.0 - - - - - - -
23/06:00pm 18.7 S 4 5 1012.6 - 0.0 - - - - - - -
23/05:30pm 19.1 S 4 5 1012.4 - 0.0 - - - - - - -
23/05:00pm 19.3 S 5 6 1012.3 - 0.0 - - - - - - -
23/04:30pm 19.9 S 6 7 1012.2 - 0.0 - - - - - - -
23/04:00pm 20.1 S 7 8 1012.2 - 0.0 - - - - - - -
23/03:30pm 20.4 S 9 10 1012.3 - 0.0 - - - - - - -
23/03:00pm 19.5 SSW 9 11 1012.5 - 0.0 Fine Mostly cloudy 20 1 0.5 9 NE
23/02:30pm 20.1 SSW 11 13 1012.3 - 0.0 - - - - - - -
23/02:00pm 19.9 SSW 14 16 1012.1 - 0.0 - - - - - - -
23/01:30pm 20.0 S 16 19 1012.2 - 0.0 - - - - - - -
23/01:00pm 19.2 SSW 17 20 1012.3 - 0.0 - - - - - - -
23/12:30pm 19.1 SSW 18 21 1012.4 - 0.0 - - - - - - -
23/12:00pm 18.9 SSW 20 24 1012.2 - 0.0 - - - - - - -
23/11:30am 18.3 SSW 22 25 1012.3 - 0.0 - - - - - - -
23/11:00am 18.2 SSW 21 24 1012.4 - 0.0 - - - - - - -
23/10:30am 18.1 SSW 22 25 1012.4 - 0.0 - - - - - - -
23/10:00am 18.2 SSW 24 29 1012.3 - 0.0 - - - - - - -
23/09:30am 18.3 SW 23 27 1012.1 - 0.0 - - - - - - -
23/09:00am 19.0 SW 24 29 1012.0 - 0.0 Fine Partly cloudy 30 1 1.0 9 NE
23/08:30am 18.8 SW 23 28 1011.2 - 0.0 - - - - - - -
23/08:00am 19.1 SW 24 28 1010.8 - 0.0 - - - - - - -
23/07:30am 19.4 SW 21 24 1010.6 - 0.0 - - - - - - -
23/07:00am 19.8 SW 16 19 1010.1 - 0.0 - - - - - - -
23/06:30am 19.1 S 6 10 1009.8 - 0.0 - - - - - - -
23/06:00am 19.6 N 4 6 1009.0 - 0.0 - - - - - - -
23/05:30am 18.5 S 4 5 1008.9 - 0.0 - - - - - - -
23/05:00am 18.9 S 5 6 1008.5 - 0.0 - - - - - - -
23/04:30am 19.1 WSW 6 8 1008.4 - 0.0 - - - - - - -
23/04:00am 19.5 N 12 14 1007.4 - 0.0 - - - - - - -
23/03:30am 19.1 N 7 9 1007.5 - 0.0 - - - - - - -
23/03:00am 19.5 N 16 19 1007.5 - 0.0 Fine Mostly cloudy 30 <0.5 0.8 10 SE
23/02:30am 19.3 NNE 16 18 1007.3 - 0.0 - - - - - - -
23/02:00am 19.2 NNE 16 21 1007.2 - 0.0 - - - - - - -
23/01:30am 19.1 NNE 14 19 1007.6 - 0.0 - - - - - - -
23/01:00am 18.9 N 11 17 1008.5 - 0.0 - - - - - - -
23/12:30am 18.9 NNE 14 19 1008.8 - 0.0 - - - - - - -
23/12:00am 18.8 NNE 17 22 1009.1 - 0.0 - - - - - - -
 
Date/Time
EDT
Temp

°C
Wind Pressure Rain
since 9am
mm
Weather Cloud Vis
km
Sea
Height
m
Swell
Dir
 
Speed
knots
Gust
knots
hPa Trend Height
m
Period
s
Dir
22/11:30pm 18.7 NNE 19 23 1008.8 - 0.0 - - - - - - -
22/11:00pm 18.5 NNE 20 24 1008.9 - 0.0 - - - - - - -
22/10:30pm 18.4 NNE 16 19 1009.5 - 0.0 - - - - - - -
22/10:00pm 18.5 NNE 14 17 1010.1 - 0.0 - - - - - - -
22/09:30pm 18.7 NNE 17 21 1009.9 - 0.0 - - - - - - -
22/09:00pm 18.8 NNE 21 26 1009.4 - 0.0 Fine Partly cloudy 30 1 1.0 10 SE
22/08:30pm 18.8 NNE 18 23 1009.6 - 0.0 - - - - - - -
22/08:00pm 18.9 NNE 18 22 1009.6 - 0.0 - - - - - - -
22/07:30pm 19.1 NNE 17 21 1009.8 - 0.0 - - - - - - -
22/07:00pm 19.2 NNE 19 23 1009.7 - 0.0 - - - - - - -
22/06:30pm 19.6 NNE 20 23 1009.5 - 0.0 - - - - - - -
22/06:00pm 19.7 NNE 22 27 1009.2 - 0.0 - - - - - - -
22/05:30pm 19.8 NNE 24 27 1009.2 - 0.0 - - - - - - -
22/05:00pm 20.0 NNE 24 29 1009.5 - 0.0 - - - - - - -
22/04:30pm 20.2 NNE 22 26 1009.9 - 0.0 - - - - - - -
22/04:00pm 20.9 NNE 21 24 1010.4 - 0.0 - - - - - - -
22/03:30pm 21.0 NE 20 24 1010.5 - 0.0 - - - - - - -
22/03:00pm 21.5 NE 20 23 1010.8 - 0.0 Fine Mostly cloudy 30 1 1.0 10 SE
22/02:30pm 21.5 NE 20 25 1011.0 - 0.0 - - - - - - -
22/02:00pm 21.9 NNE 21 27 1011.0 - 0.0 - - - - - - -
22/01:30pm 21.5 NE 23 27 1010.9 - 0.0 - - - - - - -
22/01:00pm 21.1 NE 22 27 1011.3 - 0.0 - - - - - - -
22/12:30pm 21.3 NNE 22 27 1011.2 - 0.0 - - - - - - -
22/12:00pm 21.3 NNE 23 27 1011.9 - 0.0 - - - - - - -
22/11:30am 20.8 NNE 24 29 1011.7 - 0.0 - - - - - - -
22/11:00am 20.6 NNE 22 27 1012.2 - 0.0 - - - - - - -
22/10:30am 19.8 NNE 21 26 1012.5 - 0.0 - - - - - - -
22/10:00am 20.1 NE 19 23 1013.0 - 0.0 - - - - - - -
22/09:30am 19.6 NNE 19 24 1013.1 - 0.0 - - - - - - -
22/09:00am 19.0 NNE 17 22 1013.6 - 0.0 Fine Mostly cloudy 40 1 1.0 10 S
22/08:30am 18.4 NNE 15 19 1013.9 - 0.0 - - - - - - -
22/08:00am 17.7 NNE 11 14 1013.9 - 0.0 - - - - - - -
22/07:30am 17.2 NNE 11 13 1013.7 - 0.0 - - - - - - -
22/07:00am 15.3 NNE 6 7 1013.7 - 0.0 - - - - - - -
22/06:30am 14.9 N 8 11 1013.6 - 0.0 - - - - - - -
22/06:00am 12.7 N 7 9 1013.7 - 0.0 - - - - - - -
22/05:30am 12.9 N 8 9 1013.5 - 0.0 - - - - - - -
22/05:00am 11.9 N 7 8 1013.4 - 0.0 - - - - - - -
22/04:30am 13.3 NNE 2 3 1013.4 - 0.0 - - - - - - -
22/04:00am 12.3 NNE 4 5 1013.7 - 0.0 - - - - - - -
22/03:30am 12.0 N 4 5 1013.7 - 0.0 - - - - - - -
22/03:00am 13.4 CALM 0 0 1013.7 - 0.0 Fine Clear 30 <0.1 0.5 8 NE
22/02:30am 13.3 WNW 5 5 1014.2 - 0.0 - - - - - - -
22/02:00am 13.9 WNW 4 5 1014.4 - 0.0 - - - - - - -
22/01:30am 13.1 NW 5 6 1014.5 - 0.0 - - - - - - -
22/01:00am 13.6 WNW 6 7 1014.7 - 0.0 - - - - - - -
22/12:30am 13.5 W 6 7 1014.9 - 0.0 - - - - - - -
22/12:00am 14.0 WNW 5 6 1015.1 - 0.0 - - - - - - -
 
Date/Time
EDT
Temp

°C
Wind Pressure Rain
since 9am
mm
Weather Cloud Vis
km
Sea
Height
m
Swell
Dir
 
Speed
knots
Gust
knots
hPa Trend Height
m
Period
s
Dir
21/11:30pm 14.1 WNW 6 7 1015.0 - 0.0 - - - - - - -
21/11:00pm 14.5 W 8 11 1015.1 - 0.0 - - - - - - -
21/10:30pm 14.9 W 10 11 1014.9 - 0.0 - - - - - - -
21/10:00pm 15.2 W 11 14 1014.8 - 0.0 - - - - - - -
21/09:30pm 15.5 W 11 14 1014.5 - 0.0 - - - - - - -
21/09:00pm 16.1 WSW 19 22 1013.9 - 0.0 - - - - - - -
21/08:30pm 16.2 SW 20 24 1013.4 - 0.0 - - - - - - -
21/08:00pm 16.2 SW 23 27 1012.7 - 0.0 - - - - - - -
21/07:30pm 16.5 SW 24 28 1012.2 - 0.0 - - - - - - -
21/07:00pm 16.6 SW 22 26 1011.9 - 0.0 - - - - - - -
21/06:30pm 17.0 SW 25 28 1011.1 - 0.0 - - - - - - -
21/06:00pm 17.0 SW 26 29 1010.6 - 0.0 - - - - - - -
21/05:30pm 17.0 SW 27 31 1010.2 - 0.0 - - - - - - -
21/05:00pm 17.2 SW 26 31 1010.0 - 0.0 - - - - - - -
21/04:30pm 17.1 SW 28 33 1009.5 - 0.0 - - - - - - -
21/04:00pm 17.5 SW 27 32 1009.4 - 0.0 - - - - - - -
21/03:30pm 17.8 SW 25 29 1009.3 - 0.0 - - - - - - -
21/03:00pm 17.7 SW 23 28 1009.4 - 0.0 Fine Mostly cloudy 20 2 1.5 6 SW
21/02:30pm 17.8 SW 25 30 1009.0 - 0.0 - - - - - - -
21/02:00pm 18.4 SW 25 29 1008.9 - 0.0 - - - - - - -
21/01:30pm 18.2 SW 21 27 1009.1 - 0.0 - - - - - - -
21/01:00pm 18.4 SW 18 21 1008.9 - 0.0 - - - - - - -
21/12:30pm 18.2 SW 20 23 1009.0 - 0.0 - - - - - - -

Other Formats:

Comma delimited format used in spreadsheet applications
http://www.bom.gov.au/fwo/IDV60701/IDV60701.94933.axf

JavaScript Object Notation format (JSON) in row-major order
http://www.bom.gov.au/fwo/IDV60701/IDV60701.94933.json